Time;durP1;ratioP1;P1;durP2;ratioP2;P2;SDS_P1;SDS_P2;PMS_P1;PMS_P2;Temp;Humidity;BMP_temperature;BMP_pressure;BME280_temperature;BME280_humidity;BME280_pressure;Samples;Min_cycle;Max_cycle;Signal;HPM_P1;HPM_P2
2023/01/15 00:00:12;;;;;;;;;;;;;;;7.25;94.71;100348.94;5036162;28;19920;-86
2023/01/15 00:02:37;;;;;;;;;;;;;;;7.22;94.62;100355.94;5036616;28;19913;-87
2023/01/15 00:05:03;;;;;;;;;;;;;;;7.28;94.36;100353.34;5035873;28;19913;-86
2023/01/15 00:10:31;;;;;;;;;;;;;;;7.59;92.33;100358.88;5036381;28;19924;-86
2023/01/15 00:12:56;;;;;;;;;;;;;;;7.57;92.06;100364.09;5036037;28;19913;-86
2023/01/15 00:15:21;;;;;;;;;;;;;;;7.73;91.49;100366.84;5036362;28;19947;-87
2023/01/15 00:17:47;;;;;;;;;;;;;;;7.82;91.29;100366.91;5035678;28;19913;-86
2023/01/15 00:20:12;;;;;;;;;;;;;;;7.86;90.21;100366.94;5035458;28;19952;-86
2023/01/15 00:22:37;;;;;;;;;;;;;;;7.85;89.72;100366.94;5035927;28;19913;-86
2023/01/15 00:27:47;;;;;;;;;;;;;;;7.98;89.13;100370.50;5035742;28;19980;-87
2023/01/15 00:30:13;;;;;;;;;;;;;;;7.97;88.64;100372.28;5034689;28;20372;-87
2023/01/15 00:32:39;;;;;;;;;;;;;;;8.00;88.57;100374.91;5035439;28;20414;-86
2023/01/15 00:35:05;;;;;;;;;;;;;;;7.86;88.23;100369.56;5034706;28;20423;-87
2023/01/15 00:37:30;;;;;;;;;;;;;;;7.80;89.61;100371.25;5036117;28;19951;-86
2023/01/15 00:39:56;;;;;;;;;;;;;;;7.89;89.16;100368.69;5035219;28;20283;-86
2023/01/15 00:42:21;;;;;;;;;;;;;;;7.95;88.39;100362.59;5035783;28;19917;-87
2023/01/15 00:44:46;;;;;;;;;;;;;;;7.90;88.27;100365.22;5035608;28;19913;-87
2023/01/15 00:47:14;;;;;;;;;;;;;;;7.84;89.12;100360.78;5035236;28;19917;-87
2023/01/15 00:49:40;;;;;;;;;;;;;;;7.82;88.69;100362.53;5035781;28;19917;-87
2023/01/15 00:52:05;;;;;;;;;;;;;;;7.69;89.62;100364.19;5035469;28;20351;-87
2023/01/15 00:54:32;;;;;;;;;;;;;;;7.75;89.75;100362.47;5035073;28;19913;-87
2023/01/15 00:56:57;;;;;;;;;;;;;;;7.58;90.40;100357.97;5035258;28;19999;-87
2023/01/15 00:59:23;;;;;;;;;;;;;;;7.55;90.42;100360.56;5035419;28;19951;-87
2023/01/15 01:01:48;;;;;;;;;;;;;;;7.69;89.71;100356.31;5035218;28;19914;-87
2023/01/15 01:04:14;;;;;;;;;;;;;;;7.53;90.43;100364.94;5034834;28;19913;-87
2023/01/15 01:06:39;;;;;;;;;;;;;;;7.58;90.42;100360.59;5035051;28;19913;-87
2023/01/15 01:12:07;;;;;;;;;;;;;;;7.43;91.00;100357.84;5034949;28;19952;-87
2023/01/15 01:14:33;;;;;;;;;;;;;;;7.60;90.82;100360.59;5034568;28;20315;-87
2023/01/15 01:16:58;;;;;;;;;;;;;;;7.68;89.92;100364.19;5034954;28;19921;-87
2023/01/15 01:22:26;;;;;;;;;;;;;;;7.78;89.10;100359.88;5034776;28;19968;-87
2023/01/15 01:24:51;;;;;;;;;;;;;;;7.67;89.32;100351.91;5034325;28;19913;-87
2023/01/15 01:27:18;;;;;;;;;;;;;;;7.67;89.60;100359.78;5034712;28;19986;-87
2023/01/15 01:29:43;;;;;;;;;;;;;;;7.65;89.95;100356.28;5034650;28;19909;-86
2023/01/15 01:32:08;;;;;;;;;;;;;;;7.68;90.15;100349.28;5034292;28;19913;-86
2023/01/15 01:34:34;;;;;;;;;;;;;;;7.73;89.42;100357.22;5034725;28;19913;-87
2023/01/15 01:40:02;;;;;;;;;;;;;;;7.62;89.29;100353.63;5034462;28;19997;-86
2023/01/15 01:42:27;;;;;;;;;;;;;;;7.50;90.19;100350.03;5034398;28;19952;-87
2023/01/15 01:45:04;;;;;;;;;;;;;;;7.48;90.62;100353.53;5034484;28;19920;-86
2023/01/15 01:50:39;;;;;;;;;;;;;;;7.22;91.95;100354.16;5020900;28;20404;-87
2023/01/15 01:53:11;;;;;;;;;;;;;;;7.21;91.86;100356.78;5034421;28;19921;-87
2023/01/15 01:55:37;;;;;;;;;;;;;;;7.14;92.59;100353.22;5034297;28;20028;-86
2023/01/15 01:58:04;;;;;;;;;;;;;;;7.27;92.39;100347.22;5033794;28;20388;-86
2023/01/15 02:00:31;;;;;;;;;;;;;;;7.39;91.04;100356.94;5033966;28;19913;-87
2023/01/15 02:02:57;;;;;;;;;;;;;;;7.31;91.21;100354.25;5033927;28;19970;-87
2023/01/15 02:05:30;;;;;;;;;;;;;;;7.44;91.04;100346.47;5033894;28;20007;-86
2023/01/15 02:07:55;;;;;;;;;;;;;;;7.45;91.36;100348.25;5033903;28;20300;-86
2023/01/15 02:10:20;;;;;;;;;;;;;;;7.44;90.28;100346.47;5033964;28;19920;-86
2023/01/15 02:12:51;;;;;;;;;;;;;;;7.39;90.35;100351.69;5033625;28;19913;-86
2023/01/15 02:15:21;;;;;;;;;;;;;;;7.25;90.57;100351.56;5033583;28;19971;-85
2023/01/15 02:18:01;;;;;;;;;;;;;;;7.26;91.68;100349.81;5034170;28;19996;-86
2023/01/15 02:20:44;;;;;;;;;;;;;;;7.27;90.59;100347.22;5033172;28;20380;-86
2023/01/15 02:23:12;;;;;;;;;;;;;;;7.25;91.07;100355.94;5033298;28;19909;-86
2023/01/15 02:25:51;;;;;;;;;;;;;;;7.39;90.65;100349.06;5033633;28;19913;-86
2023/01/15 02:31:22;;;;;;;;;;;;;;;7.29;90.42;100335.00;5033750;28;19999;-86
2023/01/15 02:33:55;;;;;;;;;;;;;;;7.21;90.32;100338.41;5033258;28;20310;-86
2023/01/15 02:36:23;;;;;;;;;;;;;;;7.27;91.04;100336.72;5033162;28;19952;-86
2023/01/15 02:38:50;;;;;;;;;;;;;;;7.31;90.12;100335.88;5033394;28;19913;-87
2023/01/15 02:41:18;;;;;;;;;;;;;;;7.26;90.05;100339.31;5033350;28;19971;-87
2023/01/15 02:43:48;;;;;;;;;;;;;;;7.28;90.36;100338.47;5033269;28;19917;-87
2023/01/15 02:49:18;;;;;;;;;;;;;;;7.11;90.86;100340.09;5033149;28;20394;-87
2023/01/15 02:52:04;;;;;;;;;;;;;;;6.91;91.79;100334.63;5033308;28;19917;-87
2023/01/15 02:54:33;;;;;;;;;;;;;;;6.85;92.85;100337.19;5028871;28;19971;-87
2023/01/15 02:57:00;;;;;;;;;;;;;;;6.66;93.63;100339.63;5032660;28;19963;-87
2023/01/15 02:59:30;;;;;;;;;;;;;;;6.76;93.57;100336.22;5032949;28;20302;-86
2023/01/15 03:01:58;;;;;;;;;;;;;;;6.88;93.70;100343.34;5033037;28;19963;-87
2023/01/15 03:04:26;;;;;;;;;;;;;;;6.94;92.73;100340.78;5033020;28;19913;-86
2023/01/15 03:06:55;;;;;;;;;;;;;;;6.91;92.72;100340.75;5032687;28;19913;-87
2023/01/15 03:09:21;;;;;;;;;;;;;;;6.73;93.63;100344.06;5032779;28;20095;-86
2023/01/15 03:11:54;;;;;;;;;;;;;;;6.78;94.18;100346.72;5032711;28;19924;-86
2023/01/15 03:17:23;;;;;;;;;;;;;;;6.69;94.53;100350.16;5032985;28;19920;-86
2023/01/15 03:19:54;;;;;;;;;;;;;;;6.63;94.82;100343.06;5032304;28;19913;-86
2023/01/15 03:22:25;;;;;;;;;;;;;;;6.63;95.08;100347.44;5032727;28;20018;-86
2023/01/15 03:24:56;;;;;;;;;;;;;;;6.73;94.86;100345.81;5032489;28;19920;-86
2023/01/15 03:27:22;;;;;;;;;;;;;;;6.54;96.06;100337.72;5032532;28;19917;-86
2023/01/15 03:29:49;;;;;;;;;;;;;;;6.41;97.08;100341.06;5032748;28;19909;-86
2023/01/15 03:32:15;;;;;;;;;;;;;;;6.56;97.22;100337.75;5030561;28;19995;-86
2023/01/15 03:34:43;;;;;;;;;;;;;;;6.60;96.25;100337.81;5032769;28;20356;-86
2023/01/15 03:37:09;;;;;;;;;;;;;;;6.75;95.54;100328.34;5032433;28;19940;-87
2023/01/15 03:39:35;;;;;;;;;;;;;;;6.79;94.11;100327.50;5032404;28;19921;-87
2023/01/15 03:42:17;;;;;;;;;;;;;;;6.79;94.31;100324.88;5033034;28;20355;-86
2023/01/15 03:44:48;;;;;;;;;;;;;;;6.78;94.55;100326.66;5032287;28;19913;-87
2023/01/15 03:47:20;;;;;;;;;;;;;;;6.70;94.96;100317.78;5031506;28;20300;-86
2023/01/15 03:50:03;;;;;;;;;;;;;;;6.60;95.91;100327.31;5031961;28;19920;-86
2023/01/15 03:52:34;;;;;;;;;;;;;;;6.55;96.29;100318.53;5032014;28;20291;-87
2023/01/15 03:55:10;;;;;;;;;;;;;;;6.55;95.94;100321.16;5032035;28;19963;-87
2023/01/15 03:57:35;;;;;;;;;;;;;;;6.73;95.16;100325.69;5032088;28;19944;-88
2023/01/15 04:00:06;;;;;;;;;;;;;;;7.07;93.58;100327.78;5030984;28;19909;-87
2023/01/15 04:02:31;;;;;;;;;;;;;;;7.15;92.60;100336.59;5032191;28;19919;-86
2023/01/15 04:04:57;;;;;;;;;;;;;;;7.23;91.19;100339.28;5032210;28;19913;-86
2023/01/15 04:07:23;;;;;;;;;;;;;;;7.29;90.65;100345.50;5032343;28;20003;-86
2023/01/15 04:09:49;;;;;;;;;;;;;;;7.50;90.03;100344.78;5031870;28;19917;-87
2023/01/15 04:12:14;;;;;;;;;;;;;;;7.62;89.01;100341.38;5032035;28;19927;-87
2023/01/15 04:14:40;;;;;;;;;;;;;;;7.32;89.27;100345.53;5032319;28;19913;-85
2023/01/15 04:17:05;;;;;;;;;;;;;;;7.50;89.28;100342.16;5032378;28;19921;-86
2023/01/15 04:19:30;;;;;;;;;;;;;;;7.70;88.42;100346.69;5032516;28;19913;-86
2023/01/15 04:21:56;;;;;;;;;;;;;;;7.54;88.37;100337.81;5032467;28;19921;-86
2023/01/15 04:24:21;;;;;;;;;;;;;;;7.43;88.75;100345.63;5031746;28;19917;-88
2023/01/15 04:26:46;;;;;;;;;;;;;;;7.28;88.74;100346.34;5032420;28;19913;-86
2023/01/15 04:29:12;;;;;;;;;;;;;;;7.32;89.05;100345.53;5031719;28;19909;-85
2023/01/15 04:31:37;;;;;;;;;;;;;;;7.32;88.83;100348.16;5032088;28;19913;-86
2023/01/15 04:34:03;;;;;;;;;;;;;;;7.27;89.28;100348.97;5031762;28;19913;-85
2023/01/15 04:36:28;;;;;;;;;;;;;;;7.22;89.63;100355.94;5031019;28;20355;-85
2023/01/15 04:38:56;;;;;;;;;;;;;;;7.13;89.05;100359.34;5031714;28;19920;-85
2023/01/15 04:47:10;;;;;;;;;;;;;;;6.96;89.94;100354.78;5035452;28;20462;-87
2023/01/15 04:49:35;;;;;;;;;;;;;;;6.71;90.66;100368.50;5034181;28;19913;-87
2023/01/15 04:52:00;;;;;;;;;;;;;;;6.51;92.55;100365.66;5035062;28;19917;-87
2023/01/15 04:54:26;;;;;;;;;;;;;;;6.50;92.95;100366.50;5035087;28;19924;-87
2023/01/15 04:56:52;;;;;;;;;;;;;;;6.48;93.68;100363.00;5035062;28;19920;-86
2023/01/15 04:59:19;;;;;;;;;;;;;;;6.49;93.70;100365.63;5034830;28;19920;-87
2023/01/15 05:01:44;;;;;;;;;;;;;;;6.50;93.51;100369.13;5035211;28;19919;-86
2023/01/15 05:04:09;;;;;;;;;;;;;;;6.54;93.44;100373.56;5035435;28;19913;-87
2023/01/15 05:06:35;;;;;;;;;;;;;;;6.56;92.70;100369.19;5034525;28;19955;-87
2023/01/15 05:09:01;;;;;;;;;;;;;;;6.78;92.00;100365.09;5034914;28;20379;-87
2023/01/15 05:11:26;;;;;;;;;;;;;;;6.63;92.32;100369.28;5034842;28;19935;-87
2023/01/15 05:13:52;;;;;;;;;;;;;;;6.62;92.29;100370.16;5035027;28;19928;-87
2023/01/15 05:16:19;;;;;;;;;;;;;;;6.54;92.70;100377.06;5034706;28;19986;-87
2023/01/15 05:18:45;;;;;;;;;;;;;;;6.70;91.97;100372.84;5034677;28;20257;-87
2023/01/15 05:21:14;;;;;;;;;;;;;;;6.76;91.77;100383.41;5034596;28;19962;-86
2023/01/15 05:23:39;;;;;;;;;;;;;;;6.81;91.34;100381.75;5034727;28;19913;-87
2023/01/15 05:26:04;;;;;;;;;;;;;;;6.84;91.28;100391.38;5034525;28;19971;-87
2023/01/15 05:28:30;;;;;;;;;;;;;;;6.86;91.12;100381.81;5034612;28;19987;-88
2023/01/15 05:30:55;;;;;;;;;;;;;;;6.80;90.78;100387.84;5034596;28;19955;-87
2023/01/15 05:33:20;;;;;;;;;;;;;;;6.77;91.81;100384.31;5034671;28;20349;-87
2023/01/15 05:35:46;;;;;;;;;;;;;;;6.88;91.47;100384.44;5034437;28;20433;-87
2023/01/15 05:43:59;;;;;;;;;;;;;;;7.01;90.49;100381.06;5034579;28;19931;-87
2023/01/15 05:46:25;;;;;;;;;;;;;;;6.98;90.28;100391.53;5034119;28;20002;-86
2023/01/15 05:48:50;;;;;;;;;;;;;;;6.91;90.07;100389.72;5033981;28;20364;-85
2023/01/15 05:51:16;;;;;;;;;;;;;;;6.75;90.78;100391.25;5032758;28;19917;-86
2023/01/15 05:53:41;;;;;;;;;;;;;;;6.58;91.58;100391.06;5034552;28;19913;-85
2023/01/15 05:56:07;;;;;;;;;;;;;;;6.77;91.12;100397.44;5033927;28;20403;-85
2023/01/15 05:58:32;;;;;;;;;;;;;;;6.82;90.74;100390.50;5034483;28;19913;-85
2023/01/15 06:00:58;;;;;;;;;;;;;;;6.47;92.06;100390.94;5034221;28;19967;-86
2023/01/15 06:03:23;;;;;;;;;;;;;;;6.56;92.31;100400.66;5032560;28;19936;-86
2023/01/15 06:05:53;;;;;;;;;;;;;;;6.63;91.62;100390.28;5033870;28;19914;-87
2023/01/15 06:08:18;;;;;;;;;;;;;;;6.66;91.95;100391.16;5033959;28;19913;-88
2023/01/15 06:10:44;;;;;;;;;;;;;;;6.74;91.39;100392.16;5033661;28;19920;-88
2023/01/15 06:13:09;;;;;;;;;;;;;;;6.84;90.50;100395.75;5033651;28;19914;-90
2023/01/15 06:15:34;;;;;;;;;;;;;;;6.85;89.74;100387.91;5033661;28;20315;-89
2023/01/15 06:18:00;;;;;;;;;;;;;;;6.90;89.63;100396.69;5033452;28;19913;-89
2023/01/15 06:20:25;;;;;;;;;;;;;;;6.97;89.74;100393.28;5034253;28;19940;-88
2023/01/15 06:22:50;;;;;;;;;;;;;;;7.14;88.64;100392.59;5034002;28;19920;-87
2023/01/15 06:25:16;;;;;;;;;;;;;;;7.19;88.31;100398.75;5033625;28;19913;-87
2023/01/15 06:27:43;;;;;;;;;;;;;;;7.26;87.94;100391.81;5033440;28;19913;-88
2023/01/15 06:30:09;;;;;;;;;;;;;;;7.20;87.04;100397.00;5033462;28;20295;-87
2023/01/15 06:32:34;;;;;;;;;;;;;;;7.15;87.41;100392.59;5033177;28;19917;-87
2023/01/15 06:34:59;;;;;;;;;;;;;;;7.06;87.38;100387.25;5033511;28;20298;-88
2023/01/15 06:37:25;;;;;;;;;;;;;;;6.86;88.59;100399.25;5033369;28;19957;-89
2023/01/15 06:39:50;;;;;;;;;;;;;;;6.82;89.32;100401.84;5033256;28;19999;-88
2023/01/15 06:47:44;;;;;;;;;;;;;;;6.80;89.74;100397.47;5032886;28;19979;-89
2023/01/15 06:50:09;;;;;;;;;;;;;;;6.77;89.76;100400.91;5031705;28;19979;-89
2023/01/15 06:52:35;;;;;;;;;;;;;;;6.77;89.37;100392.19;5033693;28;19913;-89
2023/01/15 06:55:00;;;;;;;;;;;;;;;6.83;88.60;100402.75;5033100;28;19908;-88
2023/01/15 06:57:25;;;;;;;;;;;;;;;6.75;89.26;100401.75;5032952;28;19913;-87
2023/01/15 06:59:51;;;;;;;;;;;;;;;6.77;89.58;100403.53;5032922;28;19913;-88
2023/01/15 07:02:17;;;;;;;;;;;;;;;6.88;90.32;100405.44;5032856;28;19959;-88
2023/01/15 07:04:42;;;;;;;;;;;;;;;6.96;89.71;100398.50;5032541;28;20020;-89
2023/01/15 07:07:07;;;;;;;;;;;;;;;6.95;89.65;100401.97;5032155;28;19914;-88
2023/01/15 07:09:33;;;;;;;;;;;;;;;6.71;91.20;100407.84;5032533;28;20051;-86
2023/01/15 07:15:01;;;;;;;;;;;;;;;6.95;90.90;100404.59;5032791;28;19916;-87
2023/01/15 07:17:26;;;;;;;;;;;;;;;6.83;91.04;100397.50;5022549;28;19914;-88
2023/01/15 07:19:52;;;;;;;;;;;;;;;6.81;90.75;100407.06;5011598;28;19914;-87
2023/01/15 07:22:17;;;;;;;;;;;;;;;6.98;90.69;100407.25;5011740;28;19914;-87
2023/01/15 07:24:42;;;;;;;;;;;;;;;6.97;90.58;100410.78;5024464;28;19936;-88
2023/01/15 07:27:07;;;;;;;;;;;;;;;6.85;90.22;100408.00;5031694;28;19936;-88
2023/01/15 07:29:33;;;;;;;;;;;;;;;7.07;90.52;100409.13;5047996;28;19909;-87
2023/01/15 07:31:58;;;;;;;;;;;;;;;7.18;89.55;100410.09;5032228;28;19913;-88
2023/01/15 07:34:24;;;;;;;;;;;;;;;7.02;89.37;100414.31;5026959;28;20435;-88
2023/01/15 07:36:50;;;;;;;;;;;;;;;6.94;89.46;100416.84;5011211;28;19913;-89
2023/01/15 07:39:15;;;;;;;;;;;;;;;7.03;89.39;100420.44;5012558;28;20338;-89
2023/01/15 07:50:00;;;;;;;;;;;;;;;6.43;92.69;100418.84;5031738;28;19932;-88
2023/01/15 07:52:25;;;;;;;;;;;;;;;6.75;92.04;100415.78;5030935;28;19924;-88
2023/01/15 07:54:50;;;;;;;;;;;;;;;6.70;91.89;100422.69;5032286;28;19913;-88
2023/01/15 07:57:20;;;;;;;;;;;;;;;6.75;91.57;100421.00;5032227;28;19920;-86
2023/01/15 07:59:45;;;;;;;;;;;;;;;6.81;91.66;100420.19;5031881;28;19917;-88
2023/01/15 08:02:11;;;;;;;;;;;;;;;6.92;91.38;100423.84;5032034;28;19920;-87
2023/01/15 08:04:37;;;;;;;;;;;;;;;6.93;91.16;100430.81;5032401;28;19913;-88
2023/01/15 08:07:02;;;;;;;;;;;;;;;6.93;90.65;100430.81;5030873;28;20322;-87
2023/01/15 08:09:28;;;;;;;;;;;;;;;6.91;91.19;100429.94;5032165;28;19913;-87
2023/01/15 08:17:22;;;;;;;;;;;;;;;7.06;90.16;100439.72;5032096;28;19975;-87
2023/01/15 08:19:47;;;;;;;;;;;;;;;6.97;91.28;100439.63;5033335;28;19913;-88
2023/01/15 08:22:12;;;;;;;;;;;;;;;7.14;90.93;100437.19;5036126;28;19919;-88
2023/01/15 08:24:38;;;;;;;;;;;;;;;6.95;90.68;100444.84;5035825;28;19913;-88
2023/01/15 08:27:03;;;;;;;;;;;;;;;6.77;91.02;100439.38;5031417;28;19913;-88
2023/01/15 08:29:29;;;;;;;;;;;;;;;6.65;92.43;100449.72;5016708;28;20315;-88
2023/01/15 08:31:54;;;;;;;;;;;;;;;6.77;91.93;100442.88;5009964;28;19944;-88
2023/01/15 08:34:19;;;;;;;;;;;;;;;6.98;91.70;100437.03;5018479;28;20307;-88
2023/01/15 08:36:45;;;;;;;;;;;;;;;6.77;92.11;100439.38;5012192;28;20007;-88
2023/01/15 08:39:11;;;;;;;;;;;;;;;6.75;93.38;100436.75;5016136;28;19913;-87
2023/01/15 08:44:39;;;;;;;;;;;;;;;6.77;93.61;100434.16;5016006;28;19920;-87
2023/01/15 08:47:04;;;;;;;;;;;;;;;6.84;93.23;100429.84;5015387;28;19918;-88
2023/01/15 08:49:30;;;;;;;;;;;;;;;6.79;93.37;100425.41;5015566;28;19921;-87
2023/01/15 08:54:58;;;;;;;;;;;;;;;6.80;94.49;100426.31;5015886;28;19952;-85
2023/01/15 08:57:23;;;;;;;;;;;;;;;6.76;93.05;100425.38;5030571;28;19949;-86
2023/01/15 08:59:48;;;;;;;;;;;;;;;6.89;94.19;100417.66;5015766;28;19913;-89
2023/01/15 09:02:14;;;;;;;;;;;;;;;7.00;92.03;100421.31;5015306;28;19913;-89
2023/01/15 09:04:39;;;;;;;;;;;;;;;6.89;92.08;100415.94;5015042;28;20360;-88
2023/01/15 09:07:04;;;;;;;;;;;;;;;6.90;92.04;100415.03;5015897;28;19913;-89
2023/01/15 09:12:32;;;;;;;;;;;;;;;6.87;91.37;100415.00;5015243;28;19967;-90
2023/01/15 09:14:57;;;;;;;;;;;;;;;7.21;91.58;100409.25;5015334;28;19909;-89
2023/01/15 09:17:23;;;;;;;;;;;;;;;7.30;91.21;100404.97;5015112;28;19917;-89
2023/01/15 09:19:48;;;;;;;;;;;;;;;7.63;90.64;100406.16;5015194;28;20311;-88
2023/01/15 09:22:13;;;;;;;;;;;;;;;7.35;89.73;100395.41;5015059;28;19918;-91
2023/01/15 09:24:39;;;;;;;;;;;;;;;7.29;89.06;100397.09;5014947;28;20280;-91
2023/01/15 09:27:04;;;;;;;;;;;;;;;7.47;89.66;100391.13;5014109;28;20343;-91
2023/01/15 09:32:32;;;;;;;;;;;;;;;7.50;88.57;100392.03;5015857;28;20272;-93
2023/01/15 09:34:58;;;;;;;;;;;;;;;7.34;88.40;100390.16;5016665;28;19914;-96
2023/01/15 09:37:24;;;;;;;;;;;;;;;7.49;89.00;100387.66;5015112;28;19921;-96
2023/01/15 09:42:58;;;;;;;;;;;;;;;7.15;89.89;100383.84;5015637;28;20462;-95
2023/01/15 09:45:24;;;;;;;;;;;;;;;7.09;89.87;100379.41;5013621;28;20392;-94
2023/01/15 09:47:57;;;;;;;;;;;;;;;7.19;90.39;100380.38;5014529;28;20012;-91
2023/01/15 09:53:56;;;;;;;;;;;;;;;7.05;90.60;100376.75;5002610;28;19924;-91
2023/01/15 09:56:26;;;;;;;;;;;;;;;7.39;89.94;100379.69;5015221;28;19928;-95
2023/01/15 10:01:55;;;;;;;;;;;;;;;7.58;88.17;100365.84;5014824;28;19917;-94
2023/01/15 10:04:39;;;;;;;;;;;;;;;7.45;88.46;100357.00;5012883;28;19917;-95
2023/01/15 10:07:04;;;;;;;;;;;;;;;7.55;88.91;100362.31;5015416;28;19917;-94
2023/01/15 10:09:34;;;;;;;;;;;;;;;7.43;88.91;100357.84;5013218;28;20395;-89
2023/01/15 10:15:00;;;;;;;;;;;;;;;7.30;87.96;100346.38;5014513;28;19975;-92
2023/01/15 10:17:48;;;;;;;;;;;;;;;7.35;87.10;100339.41;5014031;28;19917;-92
2023/01/15 10:20:40;;;;;;;;;;;;;;;7.60;85.82;100331.72;5012062;28;19914;-90
2023/01/15 10:23:09;;;;;;;;;;;;;;;7.91;85.25;100334.56;5026858;28;19917;-90
2023/01/15 10:25:45;;;;;;;;;;;;;;;7.70;85.55;100334.41;5013405;28;19913;-90
2023/01/15 10:28:30;;;;;;;;;;;;;;;7.63;86.37;100326.50;5013818;28;19956;-90
2023/01/15 10:30:58;;;;;;;;;;;;;;;7.57;86.71;100323.81;5012685;28;19918;-90
2023/01/15 10:33:30;;;;;;;;;;;;;;;7.73;86.84;100315.19;5013418;28;19914;-92
2023/01/15 10:36:09;;;;;;;;;;;;;;;7.97;85.57;100318.81;5014525;28;19913;-94
2023/01/15 10:38:53;;;;;;;;;;;;;;;8.30;85.83;100298.84;5013381;28;20005;-93
2023/01/15 10:41:21;;;;;;;;;;;;;;;8.21;86.49;100299.69;5013447;28;19919;-94
2023/01/15 10:43:56;;;;;;;;;;;;;;;8.28;84.65;100304.09;5012257;28;19913;-93
2023/01/15 10:46:24;;;;;;;;;;;;;;;8.07;84.63;100295.22;5013424;28;19964;-95
2023/01/15 10:49:01;;;;;;;;;;;;;;;8.07;82.42;100289.97;5012926;28;20357;-95
2023/01/15 10:51:40;;;;;;;;;;;;;;;8.31;82.40;100290.97;5010453;28;19921;-93
2023/01/15 10:54:12;;;;;;;;;;;;;;;8.46;82.50;100284.91;5012354;28;19975;-96
2023/01/15 10:56:40;;;;;;;;;;;;;;;8.34;80.42;100279.56;5012176;28;19968;-90
2023/01/15 10:59:23;;;;;;;;;;;;;;;8.27;81.48;100277.81;5013780;28;19921;-92
2023/01/15 11:01:51;;;;;;;;;;;;;;;8.14;81.90;100276.88;5012179;28;19913;-94
2023/01/15 11:04:16;;;;;;;;;;;;;;;8.20;81.65;100275.16;5011830;28;19914;-90
2023/01/15 11:06:43;;;;;;;;;;;;;;;8.33;82.32;100260.31;5013707;28;19920;-92
2023/01/15 11:09:16;;;;;;;;;;;;;;;8.15;80.23;100270.75;5012232;28;19920;-93
2023/01/15 11:20:27;;;;;;;;;;;;;;;8.28;81.02;100245.38;5013522;28;19920;-92
2023/01/15 11:22:54;;;;;;;;;;;;;;;8.25;82.65;100244.50;5013552;28;20372;-91
2023/01/15 11:25:29;;;;;;;;;;;;;;;8.07;81.76;100242.69;5013644;28;20411;-94
2023/01/15 11:27:56;;;;;;;;;;;;;;;8.38;83.43;100236.66;5011372;28;19913;-93
2023/01/15 11:30:27;;;;;;;;;;;;;;;8.19;81.72;100235.72;5011870;28;19917;-91
2023/01/15 11:32:57;;;;;;;;;;;;;;;7.97;82.19;100226.88;5013036;28;19971;-94
2023/01/15 11:35:22;;;;;;;;;;;;;;;7.98;83.68;100221.63;5012885;28;20360;-91
2023/01/15 11:37:48;;;;;;;;;;;;;;;8.17;83.42;100222.59;5013488;28;19920;-92
2023/01/15 11:40:17;;;;;;;;;;;;;;;8.13;82.30;100220.81;5014129;28;19949;-90
2023/01/15 11:51:06;;;;;;;;;;;;;;;8.09;80.29;100226.06;5032972;28;19920;-90
2023/01/15 11:53:38;;;;;;;;;;;;;;;8.16;81.64;100209.44;5014812;28;19975;-95
2023/01/15 11:59:12;;;;;;;;;;;;;;;8.36;82.37;100206.88;5031036;28;19916;-95
2023/01/15 12:01:47;;;;;;;;;;;;;;;8.32;81.13;100208.59;5015738;28;20000;-89
2023/01/15 12:04:25;;;;;;;;;;;;;;;8.37;81.72;100206.88;5017458;28;19913;-91
2023/01/15 12:06:50;;;;;;;;;;;;;;;8.48;81.06;100196.41;5015824;28;19996;-90
2023/01/15 12:09:24;;;;;;;;;;;;;;;8.33;81.55;100193.72;5043868;28;19955;-89
2023/01/15 12:12:09;;;;;;;;;;;;;;;8.50;81.32;100196.41;5037481;28;19920;-94
2023/01/15 12:15:02;;;;;;;;;;;;;;;8.37;80.21;100191.09;5036808;28;19913;-95
2023/01/15 12:17:28;;;;;;;;;;;;;;;8.52;81.65;100185.00;5035224;28;19913;-95
2023/01/15 12:19:53;;;;;;;;;;;;;;;8.57;80.80;100180.66;5037004;28;19920;-90
2023/01/15 12:22:25;;;;;;;;;;;;;;;8.68;79.40;100188.53;5037442;28;19913;-94
2023/01/15 12:25:11;;;;;;;;;;;;;;;8.34;79.56;100188.47;5034849;28;19913;-89
2023/01/15 12:27:39;;;;;;;;;;;;;;;8.41;80.88;100184.09;5034860;28;19951;-94
2023/01/15 12:30:14;;;;;;;;;;;;;;;8.43;79.99;100182.31;5035698;28;20471;-94
2023/01/15 12:35:45;;;;;;;;;;;;;;;8.51;81.15;100185.00;5037512;28;19916;-93
2023/01/15 12:38:17;;;;;;;;;;;;;;;8.33;81.25;100178.81;5039605;28;19913;-94
2023/01/15 12:40:46;;;;;;;;;;;;;;;8.46;80.76;100176.22;5036805;28;19913;-93
2023/01/15 12:46:21;;;;;;;;;;;;;;;8.30;80.52;100170.91;5036666;28;20387;-90
2023/01/15 12:48:55;;;;;;;;;;;;;;;8.36;80.60;100170.06;5037475;28;19920;-94
2023/01/15 12:51:41;;;;;;;;;;;;;;;8.40;81.58;100163.91;5035335;28;19917;-87
2023/01/15 12:54:11;;;;;;;;;;;;;;;8.36;81.28;100165.66;5030547;28;20034;-95
2023/01/15 12:59:59;;;;;;;;;;;;;;;8.16;82.43;100164.78;5036581;28;19959;-94
2023/01/15 13:05:30;;;;;;;;;;;;;;;8.29;82.14;100158.63;5040608;28;19963;-95
2023/01/15 13:08:11;;;;;;;;;;;;;;;8.36;82.60;100155.16;5034728;28;19924;-88
2023/01/15 13:10:38;;;;;;;;;;;;;;;8.35;81.84;100155.16;5037254;28;19913;-93
2023/01/15 13:16:19;;;;;;;;;;;;;;;8.34;80.69;100151.66;5036439;28;20386;-96
2023/01/15 13:19:00;;;;;;;;;;;;;;;8.32;81.39;100158.66;5036307;28;19955;-91
2023/01/15 13:24:36;;;;;;;;;;;;;;;8.46;81.74;100145.56;5036847;28;20298;-91
2023/01/15 13:27:17;;;;;;;;;;;;;;;8.36;81.67;100143.78;5035238;28;19913;-91
2023/01/15 13:32:55;;;;;;;;;;;;;;;8.28;82.62;100143.78;5035704;28;19932;-88
2023/01/15 13:38:26;;;;;;;;;;;;;;;8.03;82.83;100135.84;5037421;28;19916;-96
2023/01/15 13:40:52;;;;;;;;;;;;;;;8.02;82.96;100152.47;5034774;28;20334;-87
2023/01/15 13:43:26;;;;;;;;;;;;;;;8.32;82.45;100142.88;5036169;28;19913;-89
2023/01/15 13:45:52;;;;;;;;;;;;;;;8.46;81.83;100145.56;5034512;28;20287;-96
2023/01/15 13:48:28;;;;;;;;;;;;;;;8.44;80.63;100146.44;5035082;28;19913;-88
2023/01/15 13:50:56;;;;;;;;;;;;;;;8.27;80.59;100147.25;5038507;28;20003;-95
2023/01/15 13:53:24;;;;;;;;;;;;;;;7.87;82.64;100141.91;5034648;28;19917;-95
2023/01/15 13:56:01;;;;;;;;;;;;;;;7.82;83.02;100141.91;5034037;28;19917;-90
2023/01/15 13:58:28;;;;;;;;;;;;;;;7.88;82.89;100138.41;5034055;28;19913;-90
2023/01/15 14:01:12;;;;;;;;;;;;;;;7.88;82.11;100136.66;5035199;28;19957;-88
2023/01/15 14:03:37;;;;;;;;;;;;;;;7.92;82.90;100127.03;5033103;28;20371;-89
2023/01/15 14:06:07;;;;;;;;;;;;;;;8.05;82.98;100133.22;5034988;28;19919;-91
2023/01/15 14:08:37;;;;;;;;;;;;;;;8.12;81.76;100128.84;5034587;28;19917;-90
2023/01/15 14:11:03;;;;;;;;;;;;;;;7.83;82.21;100121.75;5035180;28;20363;-91
2023/01/15 14:13:49;;;;;;;;;;;;;;;7.80;83.57;100119.13;5034238;28;19963;-92
2023/01/15 14:16:20;;;;;;;;;;;;;;;7.94;82.60;100129.66;5035491;28;19909;-92
2023/01/15 14:18:58;;;;;;;;;;;;;;;7.91;82.61;100130.56;5034138;28;19940;-93
2023/01/15 14:24:45;;;;;;;;;;;;;;;7.97;81.55;100120.06;5034368;28;20386;-92
2023/01/15 14:27:10;;;;;;;;;;;;;;;8.01;81.63;100113.03;5033024;28;19913;-91
2023/01/15 14:29:49;;;;;;;;;;;;;;;7.87;82.79;100119.13;5035920;28;19913;-96
2023/01/15 14:32:23;;;;;;;;;;;;;;;8.03;81.42;100114.81;5038581;28;19913;-94
2023/01/15 14:34:57;;;;;;;;;;;;;;;7.96;82.50;100110.41;5037003;28;20367;-96
2023/01/15 14:37:25;;;;;;;;;;;;;;;7.85;83.19;100109.50;5040779;28;20379;-90
2023/01/15 14:39:59;;;;;;;;;;;;;;;7.89;82.57;100121.75;5045029;28;19913;-96
2023/01/15 14:45:14;;;;;;;;;;;;;;;7.86;82.77;100120.03;5034033;28;19920;-90
2023/01/15 14:47:45;;;;;;;;;;;;;;;8.05;82.59;100120.94;5034372;28;19913;-92
2023/01/15 14:50:32;;;;;;;;;;;;;;;8.02;81.78;100117.44;5032560;28;20295;-89
2023/01/15 14:53:06;;;;;;;;;;;;;;;7.95;82.20;100115.66;5032954;28;19996;-92
2023/01/15 14:55:32;;;;;;;;;;;;;;;7.69;83.29;100113.81;5033721;28;19913;-90
2023/01/15 14:58:00;;;;;;;;;;;;;;;7.54;84.16;100119.91;5032966;28;19909;-89
2023/01/15 15:00:28;;;;;;;;;;;;;;;7.45;84.69;100115.50;5032147;28;19913;-90
2023/01/15 15:02:54;;;;;;;;;;;;;;;7.79;84.20;100114.75;5032914;28;19999;-89
2023/01/15 15:08:26;;;;;;;;;;;;;;;7.65;83.28;100126.06;5032953;28;20017;-89
2023/01/15 15:10:53;;;;;;;;;;;;;;;7.62;84.69;100125.19;5032911;28;19913;-88
2023/01/15 15:13:36;;;;;;;;;;;;;;;7.52;84.48;100125.16;5033044;28;19913;-89